Time;durP1;ratioP1;P1;durP2;ratioP2;P2;SDS_P1;SDS_P2;PMS_P1;PMS_P2;Temp;Humidity;BMP_temperature;BMP_pressure;BME280_temperature;BME280_humidity;BME280_pressure;Samples;Min_cycle;Max_cycle;Signal;HPM_P1;HPM_P2
2024/03/06 00:02:22;;;;;;;24.15;10.82;;;;;;;;;;5002555;28;20085;-67
2024/03/06 00:04:49;;;;;;;24.13;10.18;;;;;;;;;;5006612;28;20061;-67
2024/03/06 00:07:15;;;;;;;26.73;11.25;;;;;;;;;;5000964;28;20208;-66
2024/03/06 00:09:44;;;;;;;22.50;10.93;;;;;;;;;;5010113;28;20068;-67
2024/03/06 00:12:11;;;;;;;25.08;10.93;;;;;;;;;;5023511;28;20049;-67
2024/03/06 00:14:38;;;;;;;26.08;10.90;;;;;;;;;;4990160;28;20050;-67
2024/03/06 00:17:06;;;;;;;25.23;11.13;;;;;;;;;;4994786;28;20414;-68
2024/03/06 00:19:33;;;;;;;24.38;10.10;;;;;;;;;;5002692;28;20949;-67
2024/03/06 00:22:01;;;;;;;21.40;9.95;;;;;;;;;;5002343;28;20113;-67
2024/03/06 00:24:28;;;;;;;24.00;10.18;;;;;;;;;;4991045;28;20199;-68
2024/03/06 00:26:56;;;;;;;18.63;9.80;;;;;;;;;;4978018;28;20151;-68
2024/03/06 00:29:23;;;;;;;23.63;9.98;;;;;;;;;;4990165;28;20066;-67
2024/03/06 00:31:50;;;;;;;22.13;10.05;;;;;;;;;;4985656;28;20160;-69
2024/03/06 00:34:17;;;;;;;24.13;9.80;;;;;;;;;;5004941;28;20061;-67
2024/03/06 00:36:44;;;;;;;23.85;10.70;;;;;;;;;;4986667;28;20066;-67
2024/03/06 00:39:11;;;;;;;26.40;10.68;;;;;;;;;;4988551;28;20113;-67
2024/03/06 00:41:38;;;;;;;22.75;9.88;;;;;;;;;;4990848;28;20058;-67
2024/03/06 00:44:08;;;;;;;19.92;9.77;;;;;;;;;;4987278;28;21635;-68
2024/03/06 00:46:35;;;;;;;21.83;9.55;;;;;;;;;;4989735;28;20132;-68
2024/03/06 00:49:02;;;;;;;22.63;9.77;;;;;;;;;;4984693;28;20092;-68
2024/03/06 00:51:29;;;;;;;18.13;9.00;;;;;;;;;;4994363;28;20169;-68
2024/03/06 00:53:56;;;;;;;23.13;9.85;;;;;;;;;;4958979;28;20054;-68
2024/03/06 00:56:23;;;;;;;23.80;10.30;;;;;;;;;;4968951;28;20054;-68
2024/03/06 00:58:50;;;;;;;24.75;10.60;;;;;;;;;;4990043;28;20057;-68
2024/03/06 01:01:18;;;;;;;21.95;10.27;;;;;;;;;;5004945;28;20065;-68
2024/03/06 01:03:45;;;;;;;20.13;9.93;;;;;;;;;;4986684;28;20073;-67
2024/03/06 01:06:12;;;;;;;18.20;9.57;;;;;;;;;;4975838;28;20163;-67
2024/03/06 01:08:38;;;;;;;22.88;10.98;;;;;;;;;;4986187;28;20058;-67
2024/03/06 01:11:05;;;;;;;23.75;10.07;;;;;;;;;;4995137;28;20185;-68
2024/03/06 01:13:34;;;;;;;21.92;10.07;;;;;;;;;;4992212;28;20164;-67
2024/03/06 01:16:00;;;;;;;;;;;;;;;;;;4969951;28;20057;-66
2024/03/06 01:18:29;;;;;;;19.25;8.32;;;;;;;;;;5012119;28;19929;-67
2024/03/06 01:20:56;;;;;;;21.88;8.85;;;;;;;;;;4989761;28;20058;-67
2024/03/06 01:23:22;;;;;;;20.55;9.38;;;;;;;;;;4988110;28;20062;-66
2024/03/06 01:25:49;;;;;;;24.67;9.93;;;;;;;;;;4978368;28;20061;-67
2024/03/06 01:28:16;;;;;;;20.55;9.27;;;;;;;;;;4959308;28;20069;-67
2024/03/06 01:30:43;;;;;;;18.50;8.88;;;;;;;;;;4986326;28;20061;-67
2024/03/06 01:33:09;;;;;;;21.38;9.25;;;;;;;;;;4968526;28;20076;-67
2024/03/06 01:35:38;;;;;;;20.38;9.63;;;;;;;;;;4968489;28;20072;-67
2024/03/06 01:38:09;;;;;;;20.17;9.48;;;;;;;;;;5009779;28;21715;-68
2024/03/06 01:40:36;;;;;;;21.70;9.93;;;;;;;;;;4989559;28;20061;-69
2024/03/06 01:43:02;;;;;;;19.95;9.38;;;;;;;;;;5006862;28;20058;-68
2024/03/06 01:45:31;;;;;;;21.48;9.23;;;;;;;;;;5004647;28;20088;-67
2024/03/06 01:47:57;;;;;;;20.92;9.52;;;;;;;;;;4996705;28;20082;-68
2024/03/06 01:50:24;;;;;;;18.52;9.13;;;;;;;;;;4986878;28;20845;-68
2024/03/06 01:52:52;;;;;;;20.23;9.68;;;;;;;;;;4988217;28;20153;-68
2024/03/06 01:55:19;;;;;;;19.40;8.63;;;;;;;;;;4987409;28;20072;-68
2024/03/06 01:57:47;;;;;;;22.65;9.60;;;;;;;;;;4981131;28;20062;-68
2024/03/06 02:00:16;;;;;;;22.88;10.15;;;;;;;;;;4969074;28;20092;-68
2024/03/06 02:02:43;;;;;;;20.42;8.55;;;;;;;;;;4967410;28;20054;-68
2024/03/06 02:05:11;;;;;;;21.15;8.75;;;;;;;;;;4992589;28;20077;-67
2024/03/06 02:07:41;;;;;;;16.83;8.38;;;;;;;;;;4977874;28;20062;-67
2024/03/06 02:10:12;;;;;;;18.05;9.18;;;;;;;;;;4985658;28;20049;-67
2024/03/06 02:12:38;;;;;;;17.85;8.43;;;;;;;;;;4987538;28;20063;-67
2024/03/06 02:15:06;;;;;;;20.90;9.52;;;;;;;;;;4989252;28;20132;-67
2024/03/06 02:17:34;;;;;;;21.20;9.07;;;;;;;;;;4984581;28;20061;-67
2024/03/06 02:20:01;;;;;;;21.13;8.90;;;;;;;;;;4983370;28;20056;-67
2024/03/06 02:22:29;;;;;;;21.20;9.13;;;;;;;;;;4988204;28;20069;-68
2024/03/06 02:24:57;;;;;;;18.65;8.77;;;;;;;;;;4988435;28;20058;-67
2024/03/06 02:27:24;;;;;;;;;;;;;;;;;;4984643;28;20058;-67
2024/03/06 02:29:51;;;;;;;15.45;7.35;;;;;;;;;;4984009;28;19933;-67
2024/03/06 02:32:18;;;;;;;18.02;8.70;;;;;;;;;;4989332;28;20167;-68
2024/03/06 02:34:44;;;;;;;16.80;8.48;;;;;;;;;;4987347;28;20191;-68
2024/03/06 02:37:11;;;;;;;18.55;8.98;;;;;;;;;;4985713;28;20306;-67
2024/03/06 02:39:39;;;;;;;19.58;9.60;;;;;;;;;;4987300;28;20062;-68
2024/03/06 02:42:06;;;;;;;22.30;9.50;;;;;;;;;;4984227;28;20054;-67
2024/03/06 02:44:35;;;;;;;21.23;9.77;;;;;;;;;;4986000;28;20072;-67
2024/03/06 02:47:02;;;;;;;20.33;9.23;;;;;;;;;;4990414;28;20061;-67
2024/03/06 02:49:29;;;;;;;22.30;9.98;;;;;;;;;;4990332;28;20184;-67
2024/03/06 02:51:57;;;;;;;22.42;9.68;;;;;;;;;;4981751;28;20046;-67
2024/03/06 02:54:24;;;;;;;22.48;9.88;;;;;;;;;;5004928;28;20060;-67
2024/03/06 02:56:53;;;;;;;17.30;8.63;;;;;;;;;;4983604;28;20183;-68
2024/03/06 02:59:20;;;;;;;26.83;10.15;;;;;;;;;;5009884;28;20050;-67
2024/03/06 03:01:47;;;;;;;24.05;9.73;;;;;;;;;;4991304;28;20058;-68
2024/03/06 03:04:14;;;;;;;26.02;10.63;;;;;;;;;;4984146;28;20137;-68
2024/03/06 03:06:42;;;;;;;22.00;9.75;;;;;;;;;;5010484;28;20061;-67
2024/03/06 03:09:11;;;;;;;22.30;9.75;;;;;;;;;;4986945;28;20058;-68
2024/03/06 03:11:38;;;;;;;18.05;9.48;;;;;;;;;;4988834;28;20061;-67
2024/03/06 03:14:07;;;;;;;23.42;10.32;;;;;;;;;;4975525;28;20094;-68
2024/03/06 03:16:35;;;;;;;19.95;9.45;;;;;;;;;;4976409;28;20054;-67
2024/03/06 03:19:02;;;;;;;22.60;9.50;;;;;;;;;;4978325;28;20136;-68
2024/03/06 03:21:28;;;;;;;21.25;9.93;;;;;;;;;;4975390;28;20046;-67
2024/03/06 03:23:55;;;;;;;21.90;10.23;;;;;;;;;;4958028;28;20100;-67
2024/03/06 03:26:22;;;;;;;25.70;10.40;;;;;;;;;;4982837;28;21042;-67
2024/03/06 03:28:48;;;;;;;24.67;10.85;;;;;;;;;;4970044;28;20062;-66
2024/03/06 03:31:17;;;;;;;21.80;10.38;;;;;;;;;;4966411;28;20054;-67
2024/03/06 03:33:43;;;;;;;19.10;9.35;;;;;;;;;;4943489;28;20156;-68
2024/03/06 03:36:10;;;;;;;19.70;9.70;;;;;;;;;;4966177;28;20104;-67
2024/03/06 03:38:40;;;;;;;23.58;9.80;;;;;;;;;;4970131;28;20050;-68
2024/03/06 03:41:08;;;;;;;19.58;9.55;;;;;;;;;;4966940;28;20062;-67
2024/03/06 03:43:35;;;;;;;18.27;8.85;;;;;;;;;;4961448;28;20051;-68
2024/03/06 03:46:04;;;;;;;22.10;9.15;;;;;;;;;;4982496;28;20062;-67
2024/03/06 03:48:35;;;;;;;21.88;9.95;;;;;;;;;;4991985;28;20061;-67
2024/03/06 03:51:02;;;;;;;22.08;9.55;;;;;;;;;;4990800;28;20152;-67
2024/03/06 03:53:29;;;;;;;23.73;10.57;;;;;;;;;;5012188;28;20057;-68
2024/03/06 03:55:56;;;;;;;27.92;10.70;;;;;;;;;;4986785;28;20061;-68
2024/03/06 03:58:23;;;;;;;21.33;10.15;;;;;;;;;;4983807;28;20058;-68
2024/03/06 04:00:52;;;;;;;22.45;9.40;;;;;;;;;;4988513;28;20084;-67
2024/03/06 04:03:19;;;;;;;22.25;9.60;;;;;;;;;;4993506;28;20065;-67
2024/03/06 04:05:48;;;;;;;21.00;9.60;;;;;;;;;;4974598;28;20065;-68
2024/03/06 04:08:18;;;;;;;18.95;9.25;;;;;;;;;;4991514;28;20173;-67
2024/03/06 04:10:45;;;;;;;17.50;8.20;;;;;;;;;;4992561;28;20053;-68
2024/03/06 04:13:12;;;;;;;18.42;8.50;;;;;;;;;;4990943;28;20088;-67
2024/03/06 04:15:42;;;;;;;14.25;7.50;;;;;;;;;;4988829;28;20061;-67
2024/03/06 04:18:11;;;;;;;16.70;7.50;;;;;;;;;;4989365;28;20054;-68
2024/03/06 04:20:38;;;;;;;13.43;6.85;;;;;;;;;;4990250;28;20054;-68
2024/03/06 04:23:06;;;;;;;18.25;8.55;;;;;;;;;;4990113;28;20131;-68
2024/03/06 04:25:33;;;;;;;13.43;6.75;;;;;;;;;;4987731;28;20136;-69
2024/03/06 04:28:01;;;;;;;16.92;7.43;;;;;;;;;;4982944;28;20343;-68
2024/03/06 04:30:27;;;;;;;16.42;7.47;;;;;;;;;;4990858;28;20060;-68
2024/03/06 04:32:57;;;;;;;14.80;6.05;;;;;;;;;;4991444;28;20088;-68
2024/03/06 04:35:24;;;;;;;12.95;6.50;;;;;;;;;;4983406;28;20058;-68
2024/03/06 04:37:50;;;;;;;14.35;6.97;;;;;;;;;;4984142;28;20050;-67
2024/03/06 04:40:22;;;;;;;18.60;7.50;;;;;;;;;;5016210;28;20060;-67
2024/03/06 04:42:48;;;;;;;16.55;7.10;;;;;;;;;;4988109;28;20054;-67
2024/03/06 04:45:17;;;;;;;13.85;7.20;;;;;;;;;;4987156;28;21218;-68
2024/03/06 04:47:44;;;;;;;20.58;8.07;;;;;;;;;;5008228;28;20968;-66
2024/03/06 04:50:11;;;;;;;17.17;7.68;;;;;;;;;;5006962;28;20153;-68
2024/03/06 04:52:40;;;;;;;15.85;7.45;;;;;;;;;;5005582;28;20064;-66
2024/03/06 04:55:11;;;;;;;14.23;6.43;;;;;;;;;;4986632;28;20064;-67
2024/03/06 04:57:42;;;;;;;17.30;8.18;;;;;;;;;;4992731;28;20077;-68
2024/03/06 05:00:10;;;;;;;17.00;7.78;;;;;;;;;;4984422;28;20061;-66
2024/03/06 05:02:37;;;;;;;20.05;7.60;;;;;;;;;;4988819;28;20112;-67
2024/03/06 05:05:05;;;;;;;15.75;7.45;;;;;;;;;;4984416;28;20061;-67
2024/03/06 05:07:32;;;;;;;15.53;7.33;;;;;;;;;;4989221;28;21022;-67
2024/03/06 05:10:00;;;;;;;18.58;7.53;;;;;;;;;;4983086;28;20089;-67
2024/03/06 05:12:28;;;;;;;17.17;8.80;;;;;;;;;;5013871;28;20171;-68
2024/03/06 05:14:56;;;;;;;19.85;8.57;;;;;;;;;;4992900;28;20057;-67
2024/03/06 05:17:23;;;;;;;19.42;9.20;;;;;;;;;;5006485;28;20085;-68
2024/03/06 05:19:50;;;;;;;18.40;9.02;;;;;;;;;;4984532;28;20054;-68
2024/03/06 05:22:18;;;;;;;18.02;8.50;;;;;;;;;;4991337;28;20061;-67
2024/03/06 05:24:45;;;;;;;16.85;7.93;;;;;;;;;;4983654;28;20193;-68
2024/03/06 05:27:17;;;;;;;16.98;8.15;;;;;;;;;;4988306;28;20070;-67
2024/03/06 05:29:46;;;;;;;22.10;9.00;;;;;;;;;;4987886;28;20116;-67
2024/03/06 05:32:14;;;;;;;17.95;8.15;;;;;;;;;;4986999;28;20167;-67
2024/03/06 05:34:40;;;;;;;17.30;7.43;;;;;;;;;;4977201;28;20143;-67
2024/03/06 05:37:07;;;;;;;16.90;7.97;;;;;;;;;;4992910;28;21020;-68
2024/03/06 05:39:35;;;;;;;17.75;8.45;;;;;;;;;;4987027;28;20657;-68
2024/03/06 05:42:03;;;;;;;22.48;9.25;;;;;;;;;;4979983;28;20050;-67
2024/03/06 05:44:31;;;;;;;20.65;8.68;;;;;;;;;;4981778;28;20057;-67
2024/03/06 05:47:02;;;;;;;20.60;8.43;;;;;;;;;;4985636;28;20042;-67
2024/03/06 05:49:32;;;;;;;17.42;8.25;;;;;;;;;;4986207;28;20057;-67
2024/03/06 05:51:59;;;;;;;19.17;8.25;;;;;;;;;;4977886;28;20141;-71
2024/03/06 05:54:27;;;;;;;18.67;7.57;;;;;;;;;;4964641;28;20064;-67
2024/03/06 05:56:54;;;;;;;19.20;8.00;;;;;;;;;;4987949;28;20062;-67
2024/03/06 05:59:24;;;;;;;20.63;8.55;;;;;;;;;;5011213;28;20160;-67
2024/03/06 06:01:53;;;;;;;23.05;10.55;;;;;;;;;;4996687;28;20096;-68
2024/03/06 06:04:19;;;;;;;24.98;10.82;;;;;;;;;;4996537;28;20058;-68
2024/03/06 06:06:48;;;;;;;23.30;10.02;;;;;;;;;;5010640;28;20058;-67
2024/03/06 06:09:15;;;;;;;22.63;9.70;;;;;;;;;;5005530;28;20095;-67
2024/03/06 06:11:44;;;;;;;20.10;9.45;;;;;;;;;;4983998;28;20069;-67
2024/03/06 06:14:11;;;;;;;;;;;;;;;;;;4974199;28;20048;-66
2024/03/06 06:16:38;;;;;;;28.15;9.98;;;;;;;;;;4988477;28;19936;-67
2024/03/06 06:19:05;;;;;;;20.50;8.73;;;;;;;;;;4986320;28;20046;-67
2024/03/06 06:21:32;;;;;;;23.77;11.30;;;;;;;;;;4985247;28;20057;-67
2024/03/06 06:24:01;;;;;;;29.25;12.38;;;;;;;;;;4956429;28;20057;-67
2024/03/06 06:26:32;;;;;;;33.22;12.48;;;;;;;;;;4976903;28;20056;-67
2024/03/06 06:29:02;;;;;;;30.15;12.23;;;;;;;;;;4988476;28;20061;-67
2024/03/06 06:31:31;;;;;;;37.85;13.38;;;;;;;;;;4986435;28;20282;-67
2024/03/06 06:33:57;;;;;;;;;;;;;;;;;;5003694;28;20069;-68
2024/03/06 06:36:30;;;;;;;26.50;10.40;;;;;;;;;;4985843;28;19963;-68
2024/03/06 06:38:57;;;;;;;34.72;14.50;;;;;;;;;;4987274;28;20184;-66
2024/03/06 06:41:26;;;;;;;33.83;14.15;;;;;;;;;;4987813;28;20242;-68
2024/03/06 06:43:52;;;;;;;;;;;;;;;;;;4970823;28;20061;-68
2024/03/06 06:46:19;;;;;;;31.15;11.80;;;;;;;;;;4986194;28;19961;-68
2024/03/06 06:48:48;;;;;;;29.27;12.60;;;;;;;;;;4986419;28;20979;-67
2024/03/06 06:51:16;;;;;;;28.48;12.43;;;;;;;;;;4986596;28;20115;-67
2024/03/06 06:53:42;;;;;;;27.73;12.75;;;;;;;;;;4976339;28;20080;-68
2024/03/06 06:56:09;;;;;;;31.55;14.73;;;;;;;;;;4979518;28;21179;-67
2024/03/06 06:58:44;;;;;;;30.75;14.48;;;;;;;;;;4987754;28;20267;-67
2024/03/06 07:01:10;;;;;;;26.90;11.90;;;;;;;;;;4989430;28;20162;-68
2024/03/06 07:03:37;;;;;;;26.95;13.05;;;;;;;;;;4984300;28;20058;-67
2024/03/06 07:06:05;;;;;;;24.83;11.00;;;;;;;;;;4978109;28;20076;-68
2024/03/06 07:08:34;;;;;;;23.80;11.20;;;;;;;;;;4987116;28;20560;-68
2024/03/06 07:11:01;;;;;;;19.13;8.63;;;;;;;;;;5011846;28;20211;-67
2024/03/06 07:13:28;;;;;;;18.42;8.93;;;;;;;;;;4990582;28;20185;-67
2024/03/06 07:15:56;;;;;;;18.63;9.23;;;;;;;;;;4970440;28;20049;-67
2024/03/06 07:18:23;;;;;;;18.50;8.38;;;;;;;;;;4987401;28;20148;-67
2024/03/06 07:20:50;;;;;;;16.70;8.13;;;;;;;;;;4996668;28;20261;-66
2024/03/06 07:23:17;;;;;;;15.68;7.95;;;;;;;;;;5005613;28;20137;-69
2024/03/06 07:25:49;;;;;;;19.20;9.65;;;;;;;;;;4957517;28;20053;-68
2024/03/06 07:28:16;;;;;;;20.17;8.63;;;;;;;;;;4991545;28;20168;-70
2024/03/06 07:30:45;;;;;;;19.25;9.07;;;;;;;;;;5008245;28;20156;-69
2024/03/06 07:33:13;;;;;;;18.95;8.40;;;;;;;;;;4999372;28;20073;-69
2024/03/06 07:35:46;;;;;;;;;;;;;;;;;;4967802;28;20072;-70
2024/03/06 07:38:13;;;;;;;13.98;7.50;;;;;;;;;;5007148;28;19929;-67
2024/03/06 07:40:40;;;;;;;22.23;9.52;;;;;;;;;;5007425;28;20058;-70
2024/03/06 07:43:06;;;;;;;15.88;7.38;;;;;;;;;;4992855;28;20069;-69
2024/03/06 07:45:33;;;;;;;15.27;7.55;;;;;;;;;;4986253;28;20054;-69
2024/03/06 07:48:00;;;;;;;24.73;11.95;;;;;;;;;;4985394;28;20054;-69
2024/03/06 07:50:30;;;;;;;15.27;8.18;;;;;;;;;;4991899;28;20072;-70
2024/03/06 07:52:57;;;;;;;18.90;9.38;;;;;;;;;;4991189;28;20056;-69
2024/03/06 07:55:23;;;;;;;21.80;9.48;;;;;;;;;;4994339;28;20067;-68
2024/03/06 07:57:52;;;;;;;19.55;8.73;;;;;;;;;;4986648;28;20049;-69
2024/03/06 08:00:20;;;;;;;17.95;8.68;;;;;;;;;;4992597;28;20064;-69
2024/03/06 08:02:49;;;;;;;17.92;8.07;;;;;;;;;;5005925;28;20050;-69
2024/03/06 08:05:17;;;;;;;16.38;7.70;;;;;;;;;;4968277;28;20070;-68
2024/03/06 08:07:46;;;;;;;16.40;7.75;;;;;;;;;;4966498;28;20050;-68
2024/03/06 08:10:13;;;;;;;;;;;;;;;;;;4995224;28;20057;-68
2024/03/06 08:12:45;;;;;;;16.35;7.75;;;;;;;;;;4970155;28;19925;-69
2024/03/06 08:15:15;;;;;;;20.98;8.82;;;;;;;;;;4972481;28;20058;-68
2024/03/06 08:17:44;;;;;;;17.30;8.77;;;;;;;;;;4978981;28;20098;-68
2024/03/06 08:20:12;;;;;;;16.92;8.30;;;;;;;;;;4973866;28;20065;-68
2024/03/06 08:22:40;;;;;;;19.03;8.53;;;;;;;;;;4978220;28;20053;-69
2024/03/06 08:25:10;;;;;;;20.25;9.13;;;;;;;;;;4945648;28;20087;-68
2024/03/06 08:27:40;;;;;;;19.35;8.80;;;;;;;;;;4994504;28;20169;-67
2024/03/06 08:30:10;;;;;;;17.35;8.70;;;;;;;;;;4966636;28;20184;-70
2024/03/06 08:32:37;;;;;;;20.23;8.77;;;;;;;;;;4967370;28;20054;-69
2024/03/06 08:35:07;;;;;;;23.53;9.20;;;;;;;;;;4968155;28;20155;-67
2024/03/06 08:37:34;;;;;;;21.70;9.52;;;;;;;;;;5013540;28;20062;-69
2024/03/06 08:40:02;;;;;;;19.52;8.82;;;;;;;;;;4987054;28;20850;-69
2024/03/06 08:42:40;;;;;;;19.30;8.98;;;;;;;;;;5014849;28;20058;-69
2024/03/06 08:45:18;;;;;;;22.77;9.93;;;;;;;;;;4983138;28;20144;-68
2024/03/06 08:47:47;;;;;;;19.70;9.02;;;;;;;;;;5006787;28;20054;-68
2024/03/06 08:50:16;;;;;;;21.35;9.38;;;;;;;;;;4987830;28;20054;-68
2024/03/06 08:52:43;;;;;;;19.70;8.95;;;;;;;;;;5012645;28;20105;-69
2024/03/06 08:55:11;;;;;;;18.88;9.35;;;;;;;;;;4950217;28;20093;-68
2024/03/06 08:57:41;;;;;;;19.38;8.63;;;;;;;;;;4978473;28;20076;-68
2024/03/06 09:00:11;;;;;;;22.13;9.88;;;;;;;;;;4972948;28;21022;-66
2024/03/06 09:02:40;;;;;;;22.98;9.27;;;;;;;;;;4980069;28;20366;-66
2024/03/06 09:05:10;;;;;;;;;;;;;;;;;;4944659;28;20065;-67
2024/03/06 09:07:38;;;;;;;24.05;10.15;;;;;;;;;;5006482;28;19936;-67
2024/03/06 09:10:07;;;;;;;21.48;9.32;;;;;;;;;;4984040;28;20073;-68
2024/03/06 09:12:34;;;;;;;24.42;10.98;;;;;;;;;;4987756;28;20061;-67
2024/03/06 09:15:11;;;;;;;23.58;9.93;;;;;;;;;;4981392;28;20097;-67
2024/03/06 09:17:38;;;;;;;22.50;10.27;;;;;;;;;;4986708;28;20168;-67
2024/03/06 09:20:09;;;;;;;22.70;10.35;;;;;;;;;;4986177;28;20148;-66
2024/03/06 09:22:37;;;;;;;22.00;9.68;;;;;;;;;;4988717;28;20092;-67
2024/03/06 09:25:07;;;;;;;26.00;11.53;;;;;;;;;;4959980;28;20057;-67
2024/03/06 09:27:34;;;;;;;25.70;10.13;;;;;;;;;;4982187;28;20312;-67
2024/03/06 09:30:00;;;;;;;25.73;10.40;;;;;;;;;;4977807;28;20125;-67
2024/03/06 09:32:29;;;;;;;20.55;10.50;;;;;;;;;;4986944;28;20312;-68
2024/03/06 09:34:56;;;;;;;19.63;9.52;;;;;;;;;;4988322;28;20081;-67
2024/03/06 09:37:23;;;;;;;20.60;9.40;;;;;;;;;;4987851;28;20061;-67
2024/03/06 09:39:50;;;;;;;25.90;11.48;;;;;;;;;;5003533;28;20062;-67
2024/03/06 09:42:19;;;;;;;25.47;11.10;;;;;;;;;;5012653;28;20065;-67
2024/03/06 09:44:47;;;;;;;;;;;;;;;;;;4991029;28;20057;-67
2024/03/06 09:47:15;;;;;;;23.95;10.27;;;;;;;;;;5002662;28;19929;-67
2024/03/06 09:49:46;;;;;;;24.23;10.60;;;;;;;;;;5011266;28;20153;-67
2024/03/06 09:52:14;;;;;;;20.38;9.23;;;;;;;;;;4983987;28;20292;-67
2024/03/06 09:54:41;;;;;;;25.03;10.60;;;;;;;;;;4994152;28;20064;-67
2024/03/06 09:57:08;;;;;;;29.35;12.30;;;;;;;;;;4996198;28;20057;-66
2024/03/06 09:59:35;;;;;;;27.35;11.60;;;;;;;;;;4988570;28;20081;-66
2024/03/06 10:02:03;;;;;;;25.58;9.68;;;;;;;;;;4981540;28;20062;-67
2024/03/06 10:04:34;;;;;;;19.80;9.15;;;;;;;;;;4974429;28;20112;-66
2024/03/06 10:07:02;;;;;;;26.02;11.23;;;;;;;;;;5003907;28;20057;-67
2024/03/06 10:09:31;;;;;;;22.10;10.38;;;;;;;;;;4989857;28;20054;-66
2024/03/06 10:11:58;;;;;;;26.48;11.43;;;;;;;;;;4980851;28;20131;-66
2024/03/06 10:14:25;;;;;;;24.33;11.48;;;;;;;;;;4969808;28;20523;-66
2024/03/06 10:16:56;;;;;;;28.92;11.57;;;;;;;;;;4986625;28;20313;-66
2024/03/06 10:19:24;;;;;;;26.17;11.90;;;;;;;;;;4988895;28;20072;-67
2024/03/06 10:21:51;;;;;;;34.70;12.50;;;;;;;;;;4985613;28;20084;-66
2024/03/06 10:24:24;;;;;;;24.25;11.38;;;;;;;;;;4968171;28;20053;-67
2024/03/06 10:26:54;;;;;;;24.48;11.13;;;;;;;;;;5001941;28;20057;-66
2024/03/06 10:29:24;;;;;;;26.08;11.15;;;;;;;;;;4985962;28;20411;-67
2024/03/06 10:31:54;;;;;;;23.40;10.30;;;;;;;;;;4980017;28;20061;-68
2024/03/06 10:34:22;;;;;;;24.38;10.40;;;;;;;;;;4966224;28;20164;-67
2024/03/06 10:36:54;;;;;;;26.48;11.20;;;;;;;;;;5000704;28;20073;-69
2024/03/06 10:39:24;;;;;;;25.92;11.57;;;;;;;;;;4985918;28;20059;-69
2024/03/06 10:41:54;;;;;;;27.15;12.30;;;;;;;;;;4980513;28;20052;-67
2024/03/06 10:44:25;;;;;;;28.17;12.75;;;;;;;;;;4986742;28;20058;-67
2024/03/06 10:46:57;;;;;;;27.88;12.07;;;;;;;;;;5004694;28;20152;-67
2024/03/06 10:49:25;;;;;;;26.02;11.27;;;;;;;;;;4985894;28;20061;-67
2024/03/06 10:51:53;;;;;;;24.02;10.80;;;;;;;;;;4984366;28;20050;-67
2024/03/06 10:54:23;;;;;;;24.98;10.23;;;;;;;;;;4979076;28;20520;-67
2024/03/06 10:56:52;;;;;;;22.23;10.38;;;;;;;;;;5000235;28;20144;-66
2024/03/06 10:59:21;;;;;;;25.40;10.23;;;;;;;;;;4986807;28;20077;-66
2024/03/06 11:01:48;;;;;;;24.15;10.75;;;;;;;;;;5008738;28;20058;-67
2024/03/06 11:04:15;;;;;;;26.60;10.48;;;;;;;;;;4949856;28;20126;-67
2024/03/06 11:06:48;;;;;;;30.48;10.98;;;;;;;;;;4953047;28;20068;-67
2024/03/06 11:09:15;;;;;;;28.23;11.07;;;;;;;;;;4982828;28;20062;-67
2024/03/06 11:11:49;;;;;;;27.88;11.90;;;;;;;;;;4963242;28;20121;-66
2024/03/06 11:14:19;;;;;;;27.83;11.63;;;;;;;;;;4963060;28;20113;-67
2024/03/06 11:17:03;;;;;;;33.05;11.15;;;;;;;;;;4976405;28;20078;-66
2024/03/06 11:19:31;;;;;;;21.60;10.43;;;;;;;;;;5004189;28;20068;-66
2024/03/06 11:22:03;;;;;;;32.22;12.55;;;;;;;;;;4981654;28;20054;-67
2024/03/06 11:24:33;;;;;;;29.17;11.57;;;;;;;;;;4974912;28;20072;-67
2024/03/06 11:27:07;;;;;;;29.48;12.35;;;;;;;;;;4991241;28;20058;-66
2024/03/06 11:30:10;;;;;;;25.23;11.18;;;;;;;;;;4987848;28;20124;-66
2024/03/06 11:32:39;;;;;;;24.83;10.63;;;;;;;;;;4985830;28;20264;-66
2024/03/06 11:35:08;;;;;;;;;;;;;;;;;;4936459;28;20053;-67
2024/03/06 11:37:37;;;;;;;24.00;9.38;;;;;;;;;;4979480;28;19976;-66
2024/03/06 11:40:08;;;;;;;;;;;;;;;;;;4978752;28;20064;-66
2024/03/06 11:42:36;;;;;;;30.05;11.90;;;;;;;;;;4989180;28;19929;-66
2024/03/06 11:45:22;;;;;;;29.75;12.25;;;;;;;;;;4983089;28;20140;-67
2024/03/06 11:48:00;;;;;;;23.95;11.30;;;;;;;;;;4981441;28;20132;-66
2024/03/06 11:50:31;;;;;;;25.23;11.25;;;;;;;;;;4985314;28;20069;-66
2024/03/06 11:53:00;;;;;;;27.75;11.57;;;;;;;;;;4989325;28;20050;-66
2024/03/06 11:55:28;;;;;;;;;;;;;;;;;;4974764;28;20058;-66
2024/03/06 11:57:55;;;;;;;;;;;;;;;;;;4979898;28;19984;-66
2024/03/06 12:00:27;;;;;;;29.75;13.18;;;;;;;;;;4988206;28;19929;-65
2024/03/06 12:02:55;;;;;;;29.65;13.23;;;;;;;;;;4986382;28;20058;-66
2024/03/06 12:05:25;;;;;;;28.58;11.82;;;;;;;;;;4947206;28;20064;-66
2024/03/06 12:07:52;;;;;;;27.52;12.05;;;;;;;;;;4963557;28;20102;-66
2024/03/06 12:10:21;;;;;;;31.17;13.07;;;;;;;;;;4970247;28;20145;-66
2024/03/06 12:12:48;;;;;;;31.50;13.48;;;;;;;;;;4970921;28;20073;-65
2024/03/06 12:15:18;;;;;;;31.50;15.23;;;;;;;;;;4959407;28;20049;-66
2024/03/06 12:17:51;;;;;;;35.00;14.15;;;;;;;;;;4991033;28;20062;-67
2024/03/06 12:20:20;;;;;;;35.28;13.55;;;;;;;;;;4989251;28;20069;-66
2024/03/06 12:22:50;;;;;;;25.10;11.68;;;;;;;;;;4989043;28;20064;-68
2024/03/06 12:25:20;;;;;;;33.17;12.73;;;;;;;;;;4994172;28;20060;-66
2024/03/06 12:27:51;;;;;;;32.15;14.25;;;;;;;;;;4987218;28;20148;-68
2024/03/06 12:30:27;;;;;;;36.67;14.00;;;;;;;;;;4989930;28;20054;-67
2024/03/06 12:32:59;;;;;;;32.50;14.63;;;;;;;;;;4990079;28;20050;-67
2024/03/06 12:35:28;;;;;;;32.08;13.73;;;;;;;;;;4966575;28;20046;-65
2024/03/06 12:37:55;;;;;;;32.75;14.55;;;;;;;;;;4982646;28;20133;-68
2024/03/06 12:40:22;;;;;;;37.40;13.60;;;;;;;;;;5015978;28;20050;-68
2024/03/06 12:42:50;;;;;;;41.00;15.65;;;;;;;;;;4986898;28;20081;-68
2024/03/06 12:45:20;;;;;;;33.88;14.70;;;;;;;;;;4952853;28;20149;-67
2024/03/06 12:47:51;;;;;;;34.22;13.70;;;;;;;;;;4983503;28;20073;-68
2024/03/06 12:50:20;;;;;;;36.35;14.43;;;;;;;;;;5005841;28;20058;-69
2024/03/06 12:52:48;;;;;;;;;;;;;;;;;;5003989;28;20065;-68
2024/03/06 12:55:19;;;;;;;34.60;13.50;;;;;;;;;;4984509;28;19936;-68
2024/03/06 12:57:53;;;;;;;34.58;14.40;;;;;;;;;;5003437;28;20065;-69
2024/03/06 13:00:20;;;;;;;37.08;14.50;;;;;;;;;;4987430;28;20060;-66
2024/03/06 13:02:47;;;;;;;31.88;13.93;;;;;;;;;;4991722;28;20117;-66
2024/03/06 13:05:16;;;;;;;29.13;13.52;;;;;;;;;;4967346;28;20132;-67
2024/03/06 13:07:45;;;;;;;39.85;16.75;;;;;;;;;;4977260;28;20053;-67
2024/03/06 13:10:12;;;;;;;32.55;14.00;;;;;;;;;;4988033;28;20286;-68
2024/03/06 13:12:39;;;;;;;32.20;12.50;;;;;;;;;;4988109;28;20058;-66
2024/03/06 13:15:08;;;;;;;28.63;12.52;;;;;;;;;;4984434;28;20061;-66
2024/03/06 13:17:35;;;;;;;;;;;;;;;;;;4992061;28;20050;-67
2024/03/06 13:20:09;;;;;;;25.03;11.67;;;;;;;;;;4985678;28;19936;-67
2024/03/06 13:22:42;;;;;;;26.65;11.07;;;;;;;;;;4990302;28;20061;-68
2024/03/06 13:25:13;;;;;;;15.88;6.93;;;;;;;;;;4958630;28;20062;-66
2024/03/06 13:27:45;;;;;;;20.27;7.90;;;;;;;;;;4989647;28;20148;-67
2024/03/06 13:30:13;;;;;;;15.23;6.13;;;;;;;;;;4989146;28;20049;-68
2024/03/06 13:32:42;;;;;;;18.07;8.93;;;;;;;;;;4986895;28;20050;-67
2024/03/06 13:35:12;;;;;;;23.73;7.95;;;;;;;;;;4961341;28;20080;-67
2024/03/06 13:37:42;;;;;;;14.38;6.22;;;;;;;;;;5013407;28;20065;-67
2024/03/06 13:40:12;;;;;;;13.57;5.45;;;;;;;;;;4990009;28;20049;-65
2024/03/06 13:42:41;;;;;;;11.48;5.80;;;;;;;;;;4991041;28;20417;-66
2024/03/06 13:45:11;;;;;;;15.52;5.90;;;;;;;;;;4971970;28;20068;-65
2024/03/06 13:47:40;;;;;;;18.95;8.10;;;;;;;;;;4989038;28;20112;-66
2024/03/06 13:50:15;;;;;;;16.33;7.03;;;;;;;;;;4986728;28;20049;-66
2024/03/06 13:52:42;;;;;;;14.73;6.85;;;;;;;;;;4989410;28;20077;-67
2024/03/06 13:55:21;;;;;;;22.38;8.18;;;;;;;;;;4943214;28;20368;-68
2024/03/06 13:57:53;;;;;;;;;;;;;;;;;;4969409;28;20094;-66
2024/03/06 14:00:22;;;;;;;15.90;6.97;;;;;;;;;;4972063;28;19929;-65
2024/03/06 14:02:49;;;;;;;14.25;5.95;;;;;;;;;;4969929;28;20069;-65
2024/03/06 14:05:24;;;;;;;13.52;5.10;;;;;;;;;;4947719;28;20227;-67
2024/03/06 14:07:55;;;;;;;12.88;5.32;;;;;;;;;;4960097;28;20049;-67
2024/03/06 14:10:34;;;;;;;;;;;;;;;;;;;;;
2024/03/06 14:13:06;;;;;;;13.27;4.95;;;;;;;;;;4990415;28;20210;-65
2024/03/06 14:15:33;;;;;;;14.48;4.72;;;;;;;;;;4976832;28;20061;-68
2024/03/06 14:18:02;;;;;;;13.70;5.38;;;;;;;;;;4987799;28;20132;-64
2024/03/06 14:20:29;;;;;;;14.90;5.00;;;;;;;;;;4990780;28;20108;-65
2024/03/06 14:22:58;;;;;;;12.15;4.07;;;;;;;;;;4985181;28;20054;-66
2024/03/06 14:25:25;;;;;;;15.07;5.63;;;;;;;;;;4985984;28;20061;-68
2024/03/06 14:27:52;;;;;;;26.58;12.18;;;;;;;;;;4984515;28;20137;-64
2024/03/06 14:30:21;;;;;;;8.25;3.53;;;;;;;;;;4989349;28;21021;-67
2024/03/06 14:32:47;;;;;;;20.15;5.90;;;;;;;;;;4989718;28;20061;-66
2024/03/06 14:35:17;;;;;;;12.02;3.45;;;;;;;;;;4966912;28;20069;-64
2024/03/06 14:37:44;;;;;;;4.88;2.33;;;;;;;;;;4988103;28;20068;-66
2024/03/06 14:40:11;;;;;;;8.55;2.70;;;;;;;;;;4986948;28;20631;-66